Terminal Aerodrome Forecast
Issued by NWS Wilmington, OH

Current Version | Previous Version | Graphics & Text | Print | Product List | Glossary On
Versions: 1 2 3 4 5 6 7 8 9 10 11 12 13 14 15 16 17 18
473
FTUS41 KILN 281138
TAFDAY
TAF
KDAY 281138Z 2812/2912 36007KT 4SM BR VCSH OVC005
     FM281400 36008KT P6SM OVC008
     FM281700 36010KT P6SM OVC015
     FM282100 01008KT P6SM OVC025
     FM290900 04006KT P6SM BKN050
     FM291100 04006KT P6SM SCT050=

USA.gov is the U.S. government's official web portal to all federal, state and local government web resources and services.